createdAt,value
2018-04-08T00:00:34.173Z,7.60
2018-04-08T00:01:34.087Z,7.20
2018-04-08T00:02:34.011Z,6.70
2018-04-08T00:03:33.936Z,6.90
2018-04-08T00:04:33.850Z,7.00
2018-04-08T00:05:33.774Z,7.00
2018-04-08T00:06:33.702Z,7.40
2018-04-08T00:07:33.625Z,7.00
2018-04-08T00:08:33.538Z,7.40
2018-04-08T00:09:33.462Z,6.90
2018-04-08T00:10:33.388Z,6.40
2018-04-08T00:11:33.337Z,6.60
2018-04-08T00:12:33.223Z,6.40
2018-04-08T00:13:33.149Z,7.00
2018-04-08T00:14:33.062Z,6.90
2018-04-08T00:15:32.987Z,6.30
2018-04-08T00:16:32.916Z,6.30
2018-04-08T00:17:32.824Z,6.60
2018-04-08T00:18:32.753Z,6.40
2018-04-08T00:19:32.675Z,6.50
2018-04-08T00:20:32.588Z,6.80
2018-04-08T00:21:32.514Z,7.50
2018-04-08T00:22:32.441Z,6.50
2018-04-08T00:23:32.351Z,7.80
2018-04-08T00:24:32.275Z,6.80
2018-04-08T00:25:32.202Z,6.80
2018-04-08T00:26:32.127Z,7.00
2018-04-08T00:27:32.042Z,6.90
2018-04-08T00:28:31.966Z,6.10
2018-04-08T00:29:31.876Z,6.80
2018-04-08T00:30:31.814Z,6.60
2018-04-08T00:31:31.726Z,6.20
2018-04-08T00:32:31.642Z,8.10
2018-04-08T00:33:31.565Z,7.90
2018-04-08T00:34:31.490Z,7.20
2018-04-08T00:35:31.414Z,7.20
2018-04-08T00:36:31.326Z,6.90
2018-04-08T00:37:31.252Z,7.40
2018-04-08T00:38:31.164Z,6.70
2018-04-08T00:39:31.091Z,6.60
2018-04-08T00:40:31.015Z,7.40
2018-04-08T00:41:30.927Z,8.40
2018-04-08T00:42:30.854Z,7.00
2018-04-08T00:43:30.777Z,7.20
2018-04-08T00:44:30.690Z,6.80
2018-04-08T00:45:30.618Z,6.60
2018-04-08T00:46:30.548Z,6.70
2018-04-08T00:47:30.455Z,6.60
2018-04-08T00:48:30.378Z,6.90
2018-04-08T00:49:30.317Z,6.60
2018-04-08T00:50:30.219Z,8.10
2018-04-08T00:51:30.141Z,7.60
2018-04-08T00:52:30.066Z,6.60
2018-04-08T00:53:29.979Z,7.20
2018-04-08T00:54:29.905Z,6.80
2018-04-08T00:55:29.828Z,6.50
2018-04-08T00:56:29.742Z,7.30
2018-04-08T00:57:29.667Z,6.80
2018-04-08T00:58:29.596Z,6.60
2018-04-08T00:59:29.504Z,7.10
2018-04-08T01:00:29.429Z,7.30
2018-04-08T01:01:29.354Z,6.80
2018-04-08T01:02:29.267Z,7.00
2018-04-08T01:03:29.193Z,6.60
2018-04-08T01:04:29.106Z,7.50
2018-04-08T01:05:29.029Z,7.00
2018-04-08T01:06:28.955Z,6.70
2018-04-08T01:07:28.869Z,7.50
2018-04-08T01:08:28.795Z,6.40
2018-04-08T01:09:28.720Z,7.10
2018-04-08T01:10:28.630Z,6.80
2018-04-08T01:11:28.555Z,6.60
2018-04-08T01:12:28.480Z,7.70
2018-04-08T01:13:28.394Z,6.30
2018-04-08T01:14:28.325Z,7.50
2018-04-08T01:15:28.245Z,6.30
2018-04-08T01:16:28.159Z,7.80
2018-04-08T01:17:28.081Z,8.00
2018-04-08T01:18:28.015Z,7.10
2018-04-08T01:19:27.919Z,6.90
2018-04-08T01:20:27.846Z,5.90
2018-04-08T01:21:27.770Z,6.90
2018-04-08T01:22:27.682Z,6.30
2018-04-08T01:23:27.606Z,6.60
2018-04-08T01:24:27.533Z,8.00
2018-04-08T01:25:27.445Z,8.90
2018-04-08T01:26:27.371Z,6.90
2018-04-08T01:27:27.296Z,6.50
2018-04-08T01:28:27.208Z,7.20
2018-04-08T01:29:27.132Z,6.10
2018-04-08T01:30:27.046Z,7.70
2018-04-08T01:31:26.971Z,8.40
2018-04-08T01:32:26.896Z,6.80
2018-04-08T01:33:26.809Z,7.60
2018-04-08T01:34:26.732Z,7.30
2018-04-08T01:35:26.671Z,8.10
2018-04-08T01:36:26.572Z,7.80
2018-04-08T01:37:26.497Z,7.00
2018-04-08T01:38:26.421Z,7.60
2018-04-08T01:39:26.334Z,7.70
2018-04-08T01:40:26.276Z,7.80
2018-04-08T01:41:26.183Z,8.20
2018-04-08T01:42:26.097Z,7.70
2018-04-08T01:43:26.021Z,6.30
2018-04-08T01:44:25.935Z,6.90
2018-04-08T01:45:25.874Z,7.00
2018-04-08T01:46:25.784Z,7.70
2018-04-08T01:47:25.697Z,6.90
2018-04-08T01:48:25.622Z,7.70
2018-04-08T01:49:25.547Z,7.00
2018-04-08T01:50:25.475Z,8.30
2018-04-08T01:51:25.385Z,6.40
2018-04-08T01:52:25.311Z,6.80
2018-04-08T01:53:25.224Z,8.30
2018-04-08T01:54:25.164Z,7.20
2018-04-08T01:55:25.074Z,7.50
2018-04-08T01:56:24.984Z,7.30
2018-04-08T01:57:24.910Z,6.90
2018-04-08T01:58:24.825Z,6.80
2018-04-08T01:59:24.751Z,7.10
2018-04-08T02:00:24.674Z,8.10
2018-04-08T02:01:24.587Z,7.70
2018-04-08T02:02:24.511Z,7.40
2018-04-08T02:03:24.425Z,7.70
2018-04-08T02:04:24.350Z,7.70
2018-04-08T02:05:24.275Z,8.40
2018-04-08T02:06:24.187Z,6.80
2018-04-08T02:07:24.112Z,8.80
2018-04-08T02:08:24.037Z,6.70
2018-04-08T02:09:23.950Z,8.30
2018-04-08T02:10:23.876Z,7.10
2018-04-08T02:11:23.788Z,8.30
2018-04-08T02:12:23.712Z,6.40
2018-04-08T02:13:23.638Z,7.50
2018-04-08T02:14:23.551Z,7.80
2018-04-08T02:15:23.476Z,9.30
2018-04-08T02:16:23.390Z,8.00
2018-04-08T02:17:23.313Z,6.90
2018-04-08T02:18:23.239Z,7.40
2018-04-08T02:19:23.150Z,7.10
2018-04-08T02:20:23.076Z,6.40
2018-04-08T02:21:23.005Z,8.10
2018-04-08T02:22:22.913Z,7.50
2018-04-08T02:23:22.839Z,6.70
2018-04-08T02:24:22.751Z,6.50
2018-04-08T02:25:22.677Z,7.50
2018-04-08T02:26:22.602Z,6.20
2018-04-08T02:27:22.515Z,7.30
2018-04-08T02:28:22.442Z,7.40
2018-04-08T02:29:22.364Z,9.00
2018-04-08T02:30:22.280Z,7.60
2018-04-08T02:31:22.204Z,7.60
2018-04-08T02:32:22.114Z,6.50
2018-04-08T02:33:22.040Z,8.20
2018-04-08T02:34:21.954Z,7.40
2018-04-08T02:35:21.882Z,7.00
2018-04-08T02:36:21.812Z,7.40
2018-04-08T02:37:21.714Z,5.90
2018-04-08T02:38:21.642Z,6.70
2018-04-08T02:39:21.565Z,6.20
2018-04-08T02:40:21.480Z,6.90
2018-04-08T02:41:21.405Z,6.80
2018-04-08T02:42:21.316Z,6.90
2018-04-08T02:43:21.243Z,6.50
2018-04-08T02:44:21.166Z,7.80
2018-04-08T02:45:21.080Z,7.10
2018-04-08T02:46:21.004Z,6.90
2018-04-08T02:47:20.917Z,7.30
2018-04-08T02:48:20.854Z,7.20
2018-04-08T02:49:20.766Z,6.70
2018-04-08T02:50:20.684Z,7.30
2018-04-08T02:51:20.605Z,6.50
2018-04-08T02:52:20.518Z,6.60
2018-04-08T02:53:20.455Z,7.20
2018-04-08T02:54:20.367Z,7.70
2018-04-08T02:55:20.285Z,6.50
2018-04-08T02:56:20.206Z,6.30
2018-04-08T02:57:20.117Z,7.60
2018-04-08T02:58:20.056Z,9.00
2018-04-08T02:59:19.968Z,6.70
2018-04-08T03:00:19.890Z,7.10
2018-04-08T03:01:19.808Z,7.30
2018-04-08T03:02:19.719Z,7.90
2018-04-08T03:03:19.657Z,9.10
2018-04-08T03:04:19.569Z,6.90
2018-04-08T03:05:19.486Z,8.60
2018-04-08T03:06:19.410Z,6.40
2018-04-08T03:07:19.319Z,8.20
2018-04-08T03:08:19.243Z,6.40
2018-04-08T03:09:19.169Z,7.20
2018-04-08T03:10:19.082Z,6.90
2018-04-08T03:11:19.007Z,7.70
2018-04-08T03:12:18.918Z,8.00
2018-04-08T03:13:18.844Z,6.70
2018-04-08T03:14:18.758Z,7.60
2018-04-08T03:15:18.682Z,8.10
2018-04-08T03:16:18.609Z,7.50
2018-04-08T03:17:18.519Z,6.80
2018-04-08T03:18:18.446Z,8.20
2018-04-08T03:19:18.357Z,6.80
2018-04-08T03:20:18.283Z,7.60
2018-04-08T03:21:18.208Z,7.70
2018-04-08T03:22:18.119Z,7.20
2018-04-08T03:23:18.045Z,7.70
2018-04-08T03:24:17.958Z,7.40
2018-04-08T03:25:17.884Z,6.70
2018-04-08T03:26:17.808Z,6.70
2018-04-08T03:27:17.721Z,7.10
2018-04-08T03:28:17.645Z,7.20
2018-04-08T03:29:17.558Z,8.10
2018-04-08T03:30:17.485Z,6.60
2018-04-08T03:31:17.413Z,7.70
2018-04-08T03:32:17.320Z,9.50
2018-04-08T03:33:17.249Z,8.70
2018-04-08T03:34:17.159Z,7.80
2018-04-08T03:35:17.086Z,7.00
2018-04-08T03:36:16.997Z,7.70
2018-04-08T03:37:16.925Z,8.20
2018-04-08T03:38:16.847Z,7.20
2018-04-08T03:39:16.774Z,8.20
2018-04-08T03:40:16.685Z,7.20
2018-04-08T03:41:16.598Z,7.00
2018-04-08T03:42:16.521Z,6.90
2018-04-08T03:43:16.447Z,6.90
2018-04-08T03:44:16.360Z,8.00
2018-04-08T03:45:16.286Z,8.00
2018-04-08T03:46:16.200Z,7.50
2018-04-08T03:47:16.122Z,7.20
2018-04-08T03:48:16.047Z,9.30
2018-04-08T03:49:15.960Z,8.10
2018-04-08T03:50:15.886Z,8.50
2018-04-08T03:51:15.797Z,8.60
2018-04-08T03:52:15.726Z,8.00
2018-04-08T03:53:15.648Z,6.70
2018-04-08T03:54:15.562Z,8.50
2018-04-08T03:55:15.486Z,6.60
2018-04-08T03:56:15.398Z,8.90
2018-04-08T03:57:15.336Z,7.60
2018-04-08T03:58:15.237Z,8.70
2018-04-08T03:59:15.168Z,8.50
2018-04-08T04:00:15.091Z,8.70
2018-04-08T04:01:14.999Z,7.30
2018-04-08T04:02:14.926Z,9.10
2018-04-08T04:03:14.837Z,7.10
2018-04-08T04:04:14.769Z,8.20
2018-04-08T04:05:14.686Z,9.40
2018-04-08T04:06:14.599Z,8.00
2018-04-08T04:07:14.524Z,7.70
2018-04-08T04:08:14.437Z,7.60
2018-04-08T04:09:14.364Z,9.10
2018-04-08T04:10:14.276Z,10.80
2018-04-08T04:11:14.199Z,9.60
2018-04-08T04:12:14.126Z,8.40
2018-04-08T04:13:14.039Z,8.50
2018-04-08T04:14:13.963Z,9.40
2018-04-08T04:15:13.875Z,9.00
2018-04-08T04:16:13.800Z,7.30
2018-04-08T04:17:13.713Z,8.60
2018-04-08T04:18:13.638Z,10.00
2018-04-08T04:19:13.564Z,8.60
2018-04-08T04:20:13.475Z,7.90
2018-04-08T04:21:13.401Z,9.20
2018-04-08T04:22:13.316Z,8.70
2018-04-08T04:23:13.240Z,9.70
2018-04-08T04:24:13.152Z,9.90
2018-04-08T04:25:13.076Z,8.80
2018-04-08T04:26:13.002Z,11.00
2018-04-08T04:27:12.916Z,7.80
2018-04-08T04:28:12.840Z,8.70
2018-04-08T04:29:12.751Z,8.60
2018-04-08T04:30:12.677Z,10.10
2018-04-08T04:31:12.590Z,9.80
2018-04-08T04:32:12.515Z,9.70
2018-04-08T04:33:12.440Z,9.30
2018-04-08T04:34:12.355Z,9.00
2018-04-08T04:35:12.289Z,11.20
2018-04-08T04:36:12.190Z,8.80
2018-04-08T04:37:12.115Z,10.50
2018-04-08T04:38:12.028Z,8.50
2018-04-08T04:39:11.953Z,9.80
2018-04-08T04:40:11.880Z,11.70
2018-04-08T04:41:11.792Z,9.10
2018-04-08T04:42:11.722Z,8.50
2018-04-08T04:43:11.628Z,9.30
2018-04-08T04:44:11.553Z,9.60
2018-04-08T04:45:11.467Z,10.20
2018-04-08T04:46:11.392Z,9.70
2018-04-08T04:47:11.318Z,10.30
2018-04-08T04:48:11.229Z,9.40
2018-04-08T04:49:11.154Z,8.10
2018-04-08T04:50:11.068Z,10.80
2018-04-08T04:51:10.994Z,9.40
2018-04-08T04:52:10.904Z,8.90
2018-04-08T04:53:10.830Z,8.80
2018-04-08T04:54:10.760Z,10.10
2018-04-08T04:55:10.668Z,10.50
2018-04-08T04:56:10.593Z,10.10
2018-04-08T04:57:10.505Z,10.90
2018-04-08T04:58:10.431Z,11.80
2018-04-08T04:59:10.354Z,9.00
2018-04-08T05:00:10.269Z,11.10
2018-04-08T05:01:10.193Z,10.50
2018-04-08T05:02:10.106Z,9.70
2018-04-08T05:03:10.030Z,10.30
2018-04-08T05:04:09.944Z,10.30
2018-04-08T05:05:09.869Z,9.10
2018-04-08T05:06:09.781Z,9.40
2018-04-08T05:07:09.706Z,8.70
2018-04-08T05:08:09.631Z,10.70
2018-04-08T05:09:09.545Z,9.30
2018-04-08T05:10:09.468Z,9.40
2018-04-08T05:11:09.383Z,9.40
2018-04-08T05:12:09.307Z,10.00
2018-04-08T05:13:09.219Z,9.90
2018-04-08T05:14:09.144Z,8.50
2018-04-08T05:15:09.058Z,11.00
2018-04-08T05:16:08.995Z,12.40
2018-04-08T05:17:08.906Z,11.40
2018-04-08T05:18:08.820Z,9.40
2018-04-08T05:19:08.746Z,9.10
2018-04-08T05:20:08.657Z,10.20
2018-04-08T05:21:08.582Z,9.70
2018-04-08T05:22:08.506Z,10.40
2018-04-08T05:23:08.473Z,10.20
2018-04-08T05:24:08.345Z,8.90
2018-04-08T05:25:08.258Z,8.90
2018-04-08T05:26:08.183Z,9.50
2018-04-08T05:27:08.096Z,9.50
2018-04-08T05:28:08.022Z,9.40
2018-04-08T05:29:07.946Z,9.30
2018-04-08T05:30:07.859Z,11.00
2018-04-08T05:31:07.784Z,9.40
2018-04-08T05:32:07.696Z,9.50
2018-04-08T05:33:07.623Z,10.20
2018-04-08T05:34:07.534Z,9.20
2018-04-08T05:35:07.460Z,10.00
2018-04-08T05:36:07.385Z,9.40
2018-04-08T05:37:07.297Z,9.50
2018-04-08T05:38:07.224Z,9.50
2018-04-08T05:39:07.135Z,10.30
2018-04-08T05:40:07.062Z,9.70
2018-04-08T05:41:06.984Z,9.30
2018-04-08T05:42:06.897Z,8.80
2018-04-08T05:43:06.824Z,8.90
2018-04-08T05:44:06.748Z,10.10
2018-04-08T05:45:06.660Z,9.90
2018-04-08T05:46:06.584Z,9.70
2018-04-08T05:47:06.498Z,11.50
2018-04-08T05:48:06.423Z,9.40
2018-04-08T05:49:06.351Z,9.70
2018-04-08T05:50:06.261Z,10.30
2018-04-08T05:51:06.185Z,9.80
2018-04-08T05:52:06.098Z,9.20
2018-04-08T05:53:06.030Z,10.30
2018-04-08T05:54:05.948Z,9.10
2018-04-08T05:55:05.874Z,9.20
2018-04-08T05:56:05.786Z,10.40
2018-04-08T05:57:05.699Z,8.90
2018-04-08T05:58:05.934Z,9.50
2018-04-08T05:59:05.549Z,9.70
2018-04-08T06:00:05.501Z,9.90
2018-04-08T06:01:05.388Z,9.30
2018-04-08T06:02:05.311Z,8.90
2018-04-08T06:03:05.225Z,9.20
2018-04-08T06:04:05.155Z,9.70
2018-04-08T06:05:05.063Z,10.10
2018-04-08T06:06:04.987Z,10.40
2018-04-08T06:07:04.911Z,9.10
2018-04-08T06:08:04.826Z,8.80
2018-04-08T06:09:04.750Z,9.00
2018-04-08T06:10:04.711Z,9.90
2018-04-08T06:11:04.587Z,9.10
2018-04-08T06:12:04.512Z,8.70
2018-04-08T06:13:04.438Z,8.60
2018-04-08T06:14:04.351Z,9.40
2018-04-08T06:15:04.277Z,9.70
2018-04-08T06:16:04.188Z,8.50
2018-04-08T06:17:04.112Z,9.70
2018-04-08T06:18:04.038Z,8.80
2018-04-08T06:19:03.952Z,10.10
2018-04-08T06:20:03.876Z,9.00
2018-04-08T06:21:03.802Z,10.30
2018-04-08T06:22:03.720Z,9.80
2018-04-08T06:23:03.938Z,7.80
2018-04-08T06:24:03.564Z,8.80
2018-04-08T06:25:03.478Z,10.70
2018-04-08T06:26:03.402Z,9.50
2018-04-08T06:27:03.326Z,8.80
2018-04-08T06:28:03.253Z,9.00
2018-04-08T06:29:03.164Z,9.50
2018-04-08T06:30:03.089Z,8.80
2018-04-08T06:31:03.014Z,8.80
2018-04-08T06:32:02.928Z,9.20
2018-04-08T06:33:02.863Z,9.60
2018-04-08T06:34:02.781Z,8.70
2018-04-08T06:35:02.691Z,8.80
2018-04-08T06:36:02.619Z,8.00
2018-04-08T06:37:02.539Z,9.00
2018-04-08T06:38:02.766Z,8.60
2018-04-08T06:39:02.378Z,10.20
2018-04-08T06:40:02.305Z,8.40
2018-04-08T06:41:02.229Z,9.10
2018-04-08T06:42:02.141Z,8.80
2018-04-08T06:43:02.066Z,9.50
2018-04-08T06:44:01.990Z,9.40
2018-04-08T06:45:01.917Z,8.50
2018-04-08T06:46:01.829Z,8.50
2018-04-08T06:47:01.755Z,8.00
2018-04-08T06:48:01.680Z,8.90
2018-04-08T06:49:01.605Z,8.80
2018-04-08T06:50:01.517Z,10.00
2018-04-08T06:51:01.441Z,9.30
2018-04-08T06:52:01.366Z,8.50
2018-04-08T06:53:01.291Z,9.30
2018-04-08T06:54:01.205Z,8.40
2018-04-08T06:55:01.130Z,8.80
2018-04-08T06:56:01.055Z,9.00
2018-04-08T06:57:00.980Z,8.70
2018-04-08T06:58:00.905Z,8.90
2018-04-08T06:59:00.817Z,9.00
2018-04-08T07:00:00.742Z,9.20
2018-04-08T07:01:00.667Z,8.50
2018-04-08T07:02:00.594Z,8.70
2018-04-08T07:03:00.770Z,9.10
2018-04-08T07:04:00.431Z,8.80
2018-04-08T07:05:00.356Z,9.40
2018-04-08T07:06:00.281Z,9.30
2018-04-08T07:07:00.206Z,8.50
2018-04-08T07:08:00.119Z,8.80
2018-04-08T07:09:00.043Z,7.40
2018-04-08T07:09:59.969Z,8.20
2018-04-08T07:10:59.893Z,9.40
2018-04-08T07:11:59.865Z,8.30
2018-04-08T07:12:59.743Z,8.40
2018-04-08T07:13:59.657Z,9.40
2018-04-08T07:14:59.582Z,8.40
2018-04-08T07:15:59.507Z,8.00
2018-04-08T07:16:59.435Z,8.60
2018-04-08T07:17:59.357Z,8.30
2018-04-08T07:18:59.283Z,8.00
2018-04-08T07:19:59.207Z,8.50
2018-04-08T07:20:59.132Z,7.70
2018-04-08T07:21:59.045Z,7.40
2018-04-08T07:22:58.970Z,7.80
2018-04-08T07:23:58.908Z,7.60
2018-04-08T07:24:58.820Z,8.20
2018-04-08T07:25:58.745Z,8.30
2018-04-08T07:26:58.671Z,7.50
2018-04-08T07:27:58.597Z,8.00
2018-04-08T07:28:58.520Z,7.20
2018-04-08T07:29:58.445Z,7.60
2018-04-08T07:30:58.370Z,7.50
2018-04-08T07:31:58.309Z,8.00
2018-04-08T07:32:58.220Z,7.40
2018-04-08T07:33:58.135Z,7.40
2018-04-08T07:34:58.059Z,8.40
2018-04-08T07:35:57.984Z,7.20
2018-04-08T07:36:57.910Z,7.70
2018-04-08T07:37:57.844Z,7.60
2018-04-08T07:38:57.758Z,8.00
2018-04-08T07:39:57.685Z,8.90
2018-04-08T07:40:57.610Z,7.40
2018-04-08T07:41:57.539Z,8.80
2018-04-08T07:42:57.459Z,8.40
2018-04-08T07:43:57.387Z,7.80
2018-04-08T07:44:57.310Z,8.10
2018-04-08T07:45:57.237Z,7.60
2018-04-08T07:46:57.162Z,7.70
2018-04-08T07:47:57.086Z,7.80
2018-04-08T07:48:57.011Z,8.00
2018-04-08T07:49:56.939Z,7.80
2018-04-08T07:50:56.884Z,8.10
2018-04-08T07:51:56.797Z,8.10
2018-04-08T07:52:56.740Z,8.20
2018-04-08T07:53:56.648Z,7.80
2018-04-08T07:54:56.572Z,7.90
2018-04-08T07:55:56.498Z,8.10
2018-04-08T07:56:56.425Z,8.20
2018-04-08T07:57:56.348Z,7.80
2018-04-08T07:58:56.274Z,8.60
2018-04-08T07:59:56.202Z,7.70
2018-04-08T08:00:56.124Z,8.10
2018-04-08T08:01:56.049Z,8.30
2018-04-08T08:02:55.973Z,8.50
2018-04-08T08:03:55.899Z,8.60
2018-04-08T08:04:55.825Z,9.20
2018-04-08T08:05:55.751Z,8.50
2018-04-08T08:06:55.675Z,8.10
2018-04-08T08:07:55.601Z,8.20
2018-04-08T08:08:55.538Z,9.10
2018-04-08T08:09:55.463Z,8.30
2018-04-08T08:10:55.388Z,8.50
2018-04-08T08:11:55.315Z,8.10
2018-04-08T08:12:55.238Z,8.40
2018-04-08T08:13:55.163Z,9.60
2018-04-08T08:14:55.088Z,8.80
2018-04-08T08:15:55.014Z,8.60
2018-04-08T08:16:54.939Z,8.50
2018-04-08T08:17:54.864Z,8.20
2018-04-08T08:18:54.790Z,8.60
2018-04-08T08:19:54.714Z,8.00
2018-04-08T08:20:54.640Z,8.20
2018-04-08T08:21:54.565Z,8.50
2018-04-08T08:22:54.501Z,8.90
2018-04-08T08:23:54.426Z,8.40
2018-04-08T08:24:54.356Z,8.40
2018-04-08T08:25:54.278Z,8.30
2018-04-08T08:26:54.201Z,7.80
2018-04-08T08:27:54.128Z,8.00
2018-04-08T08:28:54.052Z,8.20
2018-04-08T08:29:53.977Z,7.70
2018-04-08T08:30:53.917Z,9.20
2018-04-08T08:31:53.876Z,8.40
2018-04-08T08:32:53.766Z,7.80
2018-04-08T08:33:53.691Z,8.10
2018-04-08T08:34:53.616Z,7.80
2018-04-08T08:35:53.553Z,8.10
2018-04-08T08:36:53.477Z,7.80
2018-04-08T08:37:53.402Z,7.80
2018-04-08T08:38:53.341Z,7.40
2018-04-08T08:39:53.254Z,7.20
2018-04-08T08:40:53.192Z,8.00
2018-04-08T08:41:53.116Z,8.20
2018-04-08T08:42:53.042Z,7.30
2018-04-08T08:43:52.967Z,7.10
2018-04-08T08:44:52.904Z,8.10
2018-04-08T08:45:52.842Z,7.90
2018-04-08T08:46:52.753Z,7.30
2018-04-08T08:47:52.691Z,7.80
2018-04-08T08:48:52.617Z,7.50
2018-04-08T08:49:52.542Z,8.20
2018-04-08T08:50:52.467Z,8.30
2018-04-08T08:51:52.404Z,7.00
2018-04-08T08:52:52.343Z,7.60
2018-04-08T08:53:52.254Z,7.10
2018-04-08T08:54:52.202Z,7.50
2018-04-08T08:55:52.117Z,7.70
2018-04-08T08:56:52.044Z,7.90
2018-04-08T08:57:51.982Z,8.00
2018-04-08T08:58:51.905Z,7.60
2018-04-08T08:59:51.845Z,7.30
2018-04-08T09:00:51.769Z,8.20
2018-04-08T09:01:51.694Z,7.20
2018-04-08T09:02:51.619Z,7.50
2018-04-08T09:03:51.544Z,8.20
2018-04-08T09:04:51.481Z,7.40
2018-04-08T09:05:51.406Z,6.80
2018-04-08T09:06:51.330Z,7.90
2018-04-08T09:07:51.269Z,7.80
2018-04-08T09:08:51.194Z,7.50
2018-04-08T09:09:51.126Z,7.30
2018-04-08T09:10:51.056Z,7.40
2018-04-08T09:11:50.994Z,7.30
2018-04-08T09:12:50.907Z,7.50
2018-04-08T09:13:50.834Z,7.40
2018-04-08T09:14:50.770Z,6.80
2018-04-08T09:15:50.695Z,7.10
2018-04-08T09:16:50.621Z,6.60
2018-04-08T09:17:50.558Z,6.90
2018-04-08T09:18:50.482Z,7.50
2018-04-08T09:19:50.407Z,7.50
2018-04-08T09:20:50.333Z,7.70
2018-04-08T09:21:50.271Z,7.00
2018-04-08T09:22:50.198Z,7.50
2018-04-08T09:23:50.120Z,6.70
2018-04-08T09:24:50.046Z,7.20
2018-04-08T09:25:49.983Z,7.80
2018-04-08T09:26:49.911Z,6.70
2018-04-08T09:27:49.843Z,6.90
2018-04-08T09:28:49.758Z,6.50
2018-04-08T09:29:49.684Z,6.80
2018-04-08T09:30:49.622Z,7.30
2018-04-08T09:31:49.535Z,7.50
2018-04-08T09:32:49.472Z,6.70
2018-04-08T09:33:49.397Z,7.30
2018-04-08T09:34:49.322Z,6.80
2018-04-08T09:35:49.250Z,6.50
2018-04-08T09:36:49.172Z,7.50
2018-04-08T09:37:49.097Z,7.30
2018-04-08T09:38:49.022Z,6.70
2018-04-08T09:39:48.950Z,6.30
2018-04-08T09:40:48.872Z,6.90
2018-04-08T09:41:48.798Z,6.60
2018-04-08T09:42:48.724Z,6.40
2018-04-08T09:43:48.673Z,7.80
2018-04-08T09:44:48.587Z,6.50
2018-04-08T09:45:48.511Z,5.90
2018-04-08T09:46:48.435Z,6.40
2018-04-08T09:47:48.374Z,6.10
2018-04-08T09:48:48.285Z,6.40
2018-04-08T09:49:48.211Z,5.70
2018-04-08T09:50:48.139Z,7.00
2018-04-08T09:51:48.061Z,6.70
2018-04-08T09:52:47.986Z,6.40
2018-04-08T09:53:47.912Z,7.10
2018-04-08T09:54:47.836Z,5.90
2018-04-08T09:55:47.763Z,6.40
2018-04-08T09:56:47.687Z,6.50
2018-04-08T09:57:47.627Z,6.80
2018-04-08T09:58:47.550Z,6.90
2018-04-08T09:59:47.475Z,6.20
2018-04-08T10:00:47.404Z,6.40
2018-04-08T10:01:47.324Z,6.20
2018-04-08T10:02:47.251Z,6.30
2018-04-08T10:03:47.183Z,6.00
2018-04-08T10:04:47.106Z,6.30
2018-04-08T10:05:47.025Z,7.20
2018-04-08T10:06:46.951Z,6.30
2018-04-08T10:07:46.877Z,6.00
2018-04-08T10:08:46.811Z,6.20
2018-04-08T10:09:46.726Z,5.90
2018-04-08T10:10:46.653Z,7.00
2018-04-08T10:11:46.576Z,6.20
2018-04-08T10:12:46.514Z,6.90
2018-04-08T10:13:46.440Z,6.00
2018-04-08T10:14:46.377Z,6.20
2018-04-08T10:15:46.288Z,6.60
2018-04-08T10:16:46.214Z,6.10
2018-04-08T10:17:46.138Z,6.10
2018-04-08T10:18:46.077Z,6.20
2018-04-08T10:19:45.988Z,6.10
2018-04-08T10:20:45.914Z,7.00
2018-04-08T10:21:45.839Z,6.10
2018-04-08T10:22:45.767Z,5.50
2018-04-08T10:23:45.689Z,5.90
2018-04-08T10:24:45.650Z,6.40
2018-04-08T10:25:45.539Z,5.70
2018-04-08T10:26:45.464Z,6.10
2018-04-08T10:27:45.389Z,5.80
2018-04-08T10:28:45.314Z,6.10
2018-04-08T10:29:45.241Z,6.20
2018-04-08T10:30:45.178Z,5.80
2018-04-08T10:31:45.090Z,6.00
2018-04-08T10:32:45.018Z,6.10
2018-04-08T10:33:44.942Z,6.00
2018-04-08T10:34:44.879Z,6.30
2018-04-08T10:35:44.804Z,6.00
2018-04-08T10:36:44.729Z,5.60
2018-04-08T10:37:44.654Z,6.20
2018-04-08T10:38:44.579Z,5.80
2018-04-08T10:39:44.505Z,6.30
2018-04-08T10:40:44.429Z,5.80
2018-04-08T10:41:44.355Z,5.70
2018-04-08T10:42:44.291Z,6.20
2018-04-08T10:43:44.229Z,6.00
2018-04-08T10:44:44.187Z,6.50
2018-04-08T10:45:44.066Z,5.60
2018-04-08T10:46:43.991Z,7.20
2018-04-08T10:47:43.917Z,6.40
2018-04-08T10:48:43.854Z,5.80
2018-04-08T10:49:43.780Z,5.70
2018-04-08T10:50:43.706Z,5.90
2018-04-08T10:51:43.655Z,5.90
2018-04-08T10:52:43.567Z,6.10
2018-04-08T10:53:43.492Z,5.90
2018-04-08T10:54:43.419Z,6.20
2018-04-08T10:55:43.342Z,6.00
2018-04-08T10:56:43.282Z,6.00
2018-04-08T10:57:43.213Z,5.50
2018-04-08T10:58:43.131Z,6.00
2018-04-08T10:59:43.067Z,5.70
2018-04-08T11:00:42.995Z,6.20
2018-04-08T11:01:42.920Z,6.40
2018-04-08T11:02:42.857Z,5.80
2018-04-08T11:03:42.782Z,5.70
2018-04-08T11:04:42.763Z,5.90
2018-04-08T11:05:42.643Z,5.60
2018-04-08T11:06:42.584Z,5.70
2018-04-08T11:07:42.507Z,5.80
2018-04-08T11:08:42.432Z,5.20
2018-04-08T11:09:42.370Z,5.60
2018-04-08T11:10:42.294Z,5.00
2018-04-08T11:11:42.232Z,6.50
2018-04-08T11:12:42.161Z,5.30
2018-04-08T11:13:42.094Z,5.00
2018-04-08T11:14:42.032Z,5.70
2018-04-08T11:15:41.944Z,5.90
2018-04-08T11:16:41.883Z,6.00
2018-04-08T11:17:41.808Z,5.10
2018-04-08T11:18:41.734Z,6.20
2018-04-08T11:19:41.673Z,5.90
2018-04-08T11:20:41.595Z,6.30
2018-04-08T11:21:41.533Z,5.90
2018-04-08T11:22:41.459Z,5.80
2018-04-08T11:23:41.396Z,5.40
2018-04-08T11:24:41.334Z,5.90
2018-04-08T11:25:41.248Z,6.00
2018-04-08T11:26:41.184Z,5.80
2018-04-08T11:27:41.134Z,5.50
2018-04-08T11:28:41.046Z,5.60
2018-04-08T11:29:40.983Z,5.70
2018-04-08T11:30:40.910Z,5.30
2018-04-08T11:31:40.846Z,5.10
2018-04-08T11:32:40.790Z,5.10
2018-04-08T11:33:40.710Z,5.50
2018-04-08T11:34:40.647Z,6.20
2018-04-08T11:35:40.577Z,5.70
2018-04-08T11:36:40.510Z,5.20
2018-04-08T11:37:40.447Z,5.40
2018-04-08T11:38:40.372Z,5.40
2018-04-08T11:39:40.310Z,5.50
2018-04-08T11:40:40.247Z,5.60
2018-04-08T11:41:40.172Z,5.70
2018-04-08T11:42:40.110Z,5.10
2018-04-08T11:43:40.035Z,5.20
2018-04-08T11:44:39.973Z,5.10
2018-04-08T11:45:39.910Z,5.20
2018-04-08T11:46:39.836Z,5.60
2018-04-08T11:47:39.773Z,5.60
2018-04-08T11:48:39.712Z,5.50
2018-04-08T11:49:39.636Z,6.10
2018-04-08T11:50:39.573Z,5.10
2018-04-08T11:51:39.511Z,5.30
2018-04-08T11:52:39.436Z,4.80
2018-04-08T11:53:39.373Z,5.10
2018-04-08T11:54:39.312Z,5.20
2018-04-08T11:55:39.248Z,5.30
2018-04-08T11:56:39.175Z,5.20
2018-04-08T11:57:39.112Z,5.40
2018-04-08T11:58:39.049Z,4.90
2018-04-08T11:59:38.987Z,5.30
2018-04-08T12:00:38.916Z,5.20
2018-04-08T12:01:38.849Z,5.00
2018-04-08T12:02:38.788Z,5.30
2018-04-08T12:03:38.730Z,5.20
2018-04-08T12:04:38.651Z,5.50
2018-04-08T12:05:38.587Z,5.50
2018-04-08T12:06:38.527Z,4.90
2018-04-08T12:07:38.463Z,5.40
2018-04-08T12:08:38.413Z,5.10
2018-04-08T12:09:38.329Z,5.30
2018-04-08T12:10:38.268Z,5.70
2018-04-08T12:11:38.201Z,4.50
2018-04-08T12:12:38.126Z,5.30
2018-04-08T12:13:38.068Z,5.10
2018-04-08T12:14:38.001Z,5.30
2018-04-08T12:15:37.941Z,5.50
2018-04-08T12:16:37.865Z,5.50
2018-04-08T12:17:37.802Z,5.30
2018-04-08T12:18:37.742Z,5.20
2018-04-08T12:19:37.665Z,5.50
2018-04-08T12:20:37.606Z,5.70
2018-04-08T12:21:37.545Z,5.60
2018-04-08T12:22:37.475Z,5.60
2018-04-08T12:23:37.414Z,5.30
2018-04-08T12:24:37.347Z,5.30
2018-04-08T12:25:37.278Z,5.20
2018-04-08T12:26:37.216Z,5.10
2018-04-08T12:27:37.142Z,5.30
2018-04-08T12:28:37.077Z,5.10
2018-04-08T12:29:37.015Z,5.20
2018-04-08T12:30:36.946Z,5.30
2018-04-08T12:31:36.876Z,5.10
2018-04-08T12:32:36.816Z,5.40
2018-04-08T12:33:36.746Z,5.40
2018-04-08T12:34:36.678Z,5.30
2018-04-08T12:35:36.616Z,5.30
2018-04-08T12:36:36.553Z,6.00
2018-04-08T12:37:36.477Z,5.50
2018-04-08T12:38:36.443Z,5.50
2018-04-08T12:39:36.355Z,5.30
2018-04-08T12:40:36.280Z,5.00
2018-04-08T12:41:36.216Z,6.70
2018-04-08T12:42:36.153Z,4.80
2018-04-08T12:43:36.091Z,5.40
2018-04-08T12:44:36.017Z,5.30
2018-04-08T12:45:35.953Z,5.30
2018-04-08T12:46:35.891Z,5.00
2018-04-08T12:47:35.828Z,5.30
2018-04-08T12:48:35.754Z,5.60
2018-04-08T12:49:35.691Z,5.50
2018-04-08T12:50:35.628Z,5.50
2018-04-08T12:51:35.555Z,5.10
2018-04-08T12:52:35.496Z,5.00
2018-04-08T12:53:35.429Z,5.60
2018-04-08T12:54:35.367Z,5.50
2018-04-08T12:55:35.292Z,5.00
2018-04-08T12:56:35.229Z,5.20
2018-04-08T12:57:35.169Z,5.00
2018-04-08T12:58:35.104Z,5.10
2018-04-08T12:59:35.030Z,5.90
2018-04-08T13:00:34.997Z,5.40
2018-04-08T13:01:34.905Z,5.30
2018-04-08T13:02:34.843Z,5.40
2018-04-08T13:03:34.804Z,5.90
2018-04-08T13:04:34.705Z,5.80
2018-04-08T13:05:34.645Z,5.30
2018-04-08T13:06:34.580Z,5.80
2018-04-08T13:07:34.505Z,5.30
2018-04-08T13:08:34.443Z,4.80
2018-04-08T13:09:34.380Z,5.40
2018-04-08T13:10:34.364Z,5.30
2018-04-08T13:11:34.243Z,4.90
2018-04-08T13:12:34.180Z,5.40
2018-04-08T13:13:34.118Z,5.20
2018-04-08T13:14:34.057Z,5.10
2018-04-08T13:15:33.981Z,5.20
2018-04-08T13:16:33.920Z,5.00